Terminal Aerodrome Forecast
Issued by NWS

Home | Current Version | Previous Version | Graphics & Text | Print | Product List | Glossary On
Versions: 1 2 3 4 5 6 7 8 9 10 11 12 13 14 15 16 17
000
FTUS43 KGRB 252318 AAB
TAFATW
TAF AMD
KATW 252318Z 2523/2618 20010KT P6SM VCSH SCT025 BKN050
      TEMPO 2600/2603 6SM -SHRA BKN020
     FM260300 26012G18KT P6SM BKN040
     FM261500 26018G28KT P6SM BKN045=

USA.gov is the U.S. government's official web portal to all federal, state and local government web resources and services.